»·PEaware :: FFT180 KSLC-KBOI

FFT180 :: KSLC-KBOI

FLIGHT INFORMATION

Flight Status: Arrived
Operator:
Frontier Airlines
More flights by this operator :: More flights under this callsign
Pilot: Etienne B. (28927)
Aircraft: AIRBUS A320
(A320)
More flights by this aircraft type
Origin: KSLC Salt Lake City Intl
United States
Destination: KBOI Boise Air Terminal/Gowen
United States
More flights between these airports :: More routes between these airports
Route: CGULL1 TWF BROPH SPUUD3
File this flight plan on PilotEdge
Remarks: RMK / SIMBRIEF
Altitude:
(Current/Filed)
36,000ft
Speed:
(Current/Filed)
440kts
Departed: 14-Apr-20 04:18 PM
Arrived: 14-Apr-20 05:10 PM
Distance/Time
Traveled:
252nm/0:52
Distance/Time
To Go:
Arrived

Flight Plot

Page will automatically refresh every two minutes.


Map Options




Map Legend


Flown Route
Filed Route
Departure Airport
Arrival Airport
Navaid (VOR, NDB)
Fix

Horizontal Profiles

Position Reports

Time Latitude Longitude Heading Altitude Ground
Speed
14-Apr-20 15:50 40.788110 -111.984109 250 4236ft 0kts
14-Apr-20 15:51 40.788110 -111.984109 250 4236ft 0kts
14-Apr-20 15:52 40.788110 -111.984109 250 4236ft 0kts
14-Apr-20 15:53 40.788110 -111.984109 250 4236ft 0kts
14-Apr-20 15:54 40.788110 -111.984109 250 4236ft 0kts
14-Apr-20 15:55 40.788110 -111.984109 250 4236ft 0kts
14-Apr-20 15:56 40.788110 -111.984109 250 4236ft 0kts
14-Apr-20 15:57 40.788110 -111.984109 250 4236ft 0kts
14-Apr-20 15:58 40.788110 -111.984109 250 4236ft 0kts
14-Apr-20 15:59 40.788110 -111.984109 250 4236ft 0kts
14-Apr-20 16:00 40.788110 -111.984109 250 4236ft 0kts
14-Apr-20 16:01 40.788110 -111.984109 250 4236ft 0kts
14-Apr-20 16:02 40.788110 -111.984109 250 4236ft 0kts
14-Apr-20 16:03 40.788177 -111.983847 259 4236ft 2kts
14-Apr-20 16:04 40.787997 -111.983162 320 4236ft 2kts
14-Apr-20 16:05 40.787780 -111.983008 341 4236ft 0kts
14-Apr-20 16:06 40.787793 -111.983014 341 4236ft 0kts
14-Apr-20 16:07 40.788563 -111.982954 9 4236ft 10kts
14-Apr-20 16:08 40.791010 -111.982962 354 4236ft 0kts
14-Apr-20 16:09 40.791032 -111.982964 354 4236ft 1kts
14-Apr-20 16:10 40.791881 -111.980776 85 4236ft 12kts
14-Apr-20 16:11 40.792744 -111.977403 355 4236ft 8kts
14-Apr-20 16:12 40.797335 -111.977949 354 4236ft 19kts
14-Apr-20 16:13 40.802315 -111.978487 5 4236ft 16kts
14-Apr-20 16:14 40.806420 -111.978620 352 4236ft 13kts
14-Apr-20 16:16 40.807088 -111.978529 31 4236ft 0kts
14-Apr-20 16:17 40.807448 -111.977870 89 4236ft 7kts
14-Apr-20 16:18 40.794470 -111.975493 173 4236ft 149kts
14-Apr-20 16:19 40.759496 -112.000972 291 6779ft 160kts
14-Apr-20 16:20 40.788831 -112.046694 312 9403ft 175kts
14-Apr-20 16:21 40.833203 -112.105202 313 10405ft 286kts
14-Apr-20 16:22 40.895388 -112.189391 313 12210ft 332kts
14-Apr-20 16:23 40.960217 -112.277172 313 14814ft 338kts
14-Apr-20 16:24 41.026354 -112.366805 313 17224ft 342kts
14-Apr-20 16:25 41.098161 -112.449673 325 19412ft 347kts
14-Apr-20 16:26 41.177583 -112.517886 322 21360ft 349kts
14-Apr-20 16:27 41.254952 -112.596453 322 23101ft 354kts
14-Apr-20 16:28 41.325199 -112.688755 313 24652ft 359kts
14-Apr-20 16:29 41.392896 -112.787789 314 26061ft 365kts
14-Apr-20 16:30 41.460361 -112.890213 314 27365ft 370kts
14-Apr-20 16:31 41.528396 -112.994555 316 28522ft 376kts
14-Apr-20 16:32 41.597584 -113.100953 317 29542ft 382kts
14-Apr-20 16:32 41.655788 -113.190751 317 30205ft 386kts
14-Apr-20 16:34 41.737378 -113.317114 317 30206ft 386kts
14-Apr-20 16:35 41.807675 -113.426344 317 30204ft 396kts
14-Apr-20 16:35 41.868271 -113.522197 317 30203ft 409kts
14-Apr-20 16:36 41.942467 -113.637339 317 30207ft 400kts
14-Apr-20 16:38 42.024936 -113.766774 316 30206ft 389kts
14-Apr-20 16:38 42.083491 -113.859084 316 30207ft 390kts
14-Apr-20 16:39 42.153932 -113.970585 316 30217ft 392kts
14-Apr-20 16:41 42.234960 -114.098977 316 29822ft 368kts
14-Apr-20 16:41 42.287745 -114.182848 317 29231ft 338kts
14-Apr-20 16:42 42.347029 -114.277094 316 28502ft 326kts
14-Apr-20 16:43 42.405444 -114.370260 316 27803ft 324kts
14-Apr-20 16:44 42.463441 -114.463137 315 27078ft 321kts
14-Apr-20 16:45 42.520619 -114.554406 315 26341ft 317kts
14-Apr-20 16:46 42.577339 -114.644913 315 25600ft 314kts
14-Apr-20 16:47 42.633745 -114.735215 314 24863ft 312kts
14-Apr-20 16:48 42.689331 -114.824486 314 24115ft 309kts
14-Apr-20 16:49 42.746028 -114.911272 316 23366ft 305kts
14-Apr-20 16:50 42.802760 -114.992700 315 22118ft 289kts
14-Apr-20 16:51 42.856592 -115.070140 315 20766ft 274kts
14-Apr-20 16:52 42.908366 -115.144777 314 19469ft 271kts
14-Apr-20 16:53 42.960217 -115.219887 314 18150ft 271kts
14-Apr-20 16:54 43.011659 -115.294668 315 16812ft 268kts
14-Apr-20 16:55 43.062817 -115.369225 314 15530ft 268kts
14-Apr-20 16:56 43.113499 -115.443289 314 14236ft 266kts
14-Apr-20 16:57 43.164013 -115.517230 314 12948ft 264kts
14-Apr-20 16:58 43.214045 -115.590502 314 11680ft 262kts
14-Apr-20 16:59 43.263585 -115.662795 317 10468ft 257kts
14-Apr-20 17:00 43.318170 -115.724476 320 9361ft 253kts
14-Apr-20 17:01 43.371581 -115.785242 319 8182ft 246kts
14-Apr-20 17:02 43.424000 -115.845351 319 7037ft 242kts
14-Apr-20 17:03 43.462313 -115.919535 296 6344ft 232kts
14-Apr-20 17:04 43.485315 -115.987756 297 6299ft 157kts
14-Apr-20 17:05 43.503615 -116.040988 297 5539ft 151kts
14-Apr-20 17:06 43.520696 -116.092796 296 4715ft 144kts
14-Apr-20 17:07 43.537874 -116.142138 298 3914ft 141kts
14-Apr-20 17:08 43.554622 -116.191054 296 3077ft 140kts
14-Apr-20 17:09 43.565654 -116.223535 304 2850ft 27kts
14-Apr-20 17:10 43.566600 -116.223945 17 2850ft 5kts
14-Apr-20 17:11 43.566362 -116.222013 114 2853ft 5kts
14-Apr-20 17:12 43.567261 -116.220695 21 2853ft 0kts

Navigation Log

Ident Type
Flight plan parsing failed, navigation log unavailable